Time;durP1;ratioP1;P1;durP2;ratioP2;P2;SDS_P1;SDS_P2;PMS_P1;PMS_P2;Temp;Humidity;BMP_temperature;BMP_pressure;BME280_temperature;BME280_humidity;BME280_pressure;Samples;Min_cycle;Max_cycle;Signal;HPM_P1;HPM_P2
2022/11/16 00:02:15;;;;;;;14.90;12.53;;;10.30;35.40;;;;;;5055739;28;20477;-70
2022/11/16 00:04:42;;;;;;;15.90;12.57;;;10.20;35.50;;;;;;5061324;28;20457;-71
2022/11/16 00:07:09;;;;;;;17.13;13.10;;;10.20;35.20;;;;;;5066412;28;20476;-71
2022/11/16 00:09:36;;;;;;;14.43;10.17;;;10.20;35.30;;;;;;5067332;28;20481;-71
2022/11/16 00:12:06;;;;;;;14.37;12.10;;;10.20;35.40;;;;;;5063236;28;20923;-71
2022/11/16 00:14:35;;;;;;;16.03;11.73;;;10.20;35.40;;;;;;5064051;28;20547;-70
2022/11/16 00:17:03;;;;;;;16.77;12.67;;;10.20;35.50;;;;;;5065780;28;20464;-73
2022/11/16 00:19:31;;;;;;;16.33;12.57;;;10.20;35.50;;;;;;5054390;28;20495;-72
2022/11/16 00:21:58;;;;;;;14.37;11.30;;;10.10;35.60;;;;;;5062036;28;20500;-70
2022/11/16 00:24:25;;;;;;;16.43;12.53;;;10.20;35.50;;;;;;5064401;28;20471;-72
2022/11/16 00:26:55;;;;;;;13.30;10.70;;;10.20;35.60;;;;;;5070720;28;20465;-72
2022/11/16 00:29:24;;;;;;;15.87;11.80;;;10.10;35.70;;;;;;5063328;28;21009;-70
2022/11/16 00:31:51;;;;;;;13.83;10.83;;;10.10;35.60;;;;;;5065932;28;20488;-72
2022/11/16 00:34:20;;;;;;;14.53;11.40;;;10.10;35.60;;;;;;5054762;28;20542;-71
2022/11/16 00:36:48;;;;;;;13.73;10.10;;;10.10;35.70;;;;;;5056826;28;20458;-70
2022/11/16 00:39:16;;;;;;;14.27;11.50;;;10.10;35.80;;;;;;5054853;28;20599;-71
2022/11/16 00:41:43;;;;;;;16.07;12.53;;;10.10;35.70;;;;;;5065503;28;20489;-72
2022/11/16 00:44:10;;;;;;;15.50;11.20;;;10.10;35.80;;;;;;5065979;28;20476;-71
2022/11/16 00:46:38;;;;;;;16.00;10.97;;;10.10;35.90;;;;;;5058044;28;20461;-71
2022/11/16 00:49:05;;;;;;;18.43;11.40;;;10.10;35.90;;;;;;5058253;28;20980;-71
2022/11/16 00:51:32;;;;;;;15.57;11.87;;;10.10;36.00;;;;;;5055897;28;20453;-73
2022/11/16 00:54:01;;;;;;;13.53;11.00;;;10.10;36.00;;;;;;5062860;28;20450;-70
2022/11/16 00:56:28;;;;;;;15.83;10.80;;;10.10;36.00;;;;;;5053394;28;20480;-70
2022/11/16 00:58:54;;;;;;;15.70;11.20;;;10.10;36.00;;;;;;5061756;28;20477;-72
2022/11/16 01:01:21;;;;;;;14.67;10.80;;;10.10;36.10;;;;;;5053172;28;20972;-71
2022/11/16 01:03:48;;;;;;;18.27;11.70;;;10.10;36.00;;;;;;5057674;28;20990;-70
2022/11/16 01:06:16;;;;;;;14.50;9.67;;;10.10;36.00;;;;;;5055208;28;20458;-71
2022/11/16 01:08:44;;;;;;;16.60;10.43;;;10.10;36.20;;;;;;5057764;28;21119;-71
2022/11/16 01:13:58;;;;;;;16.47;11.20;;;10.10;36.30;;;;;;5060467;28;20468;-72
2022/11/16 01:16:24;;;;;;;12.90;9.70;;;10.10;36.30;;;;;;5061180;28;20453;-72
2022/11/16 01:18:53;;;;;;;15.70;11.53;;;10.10;36.30;;;;;;5054911;28;20477;-71
2022/11/16 01:21:21;;;;;;;13.70;10.60;;;10.10;36.30;;;;;;5059486;28;20468;-71
2022/11/16 01:23:48;;;;;;;16.57;10.70;;;10.10;36.30;;;;;;5061400;28;20485;-72
2022/11/16 01:26:16;;;;;;;13.70;10.10;;;10.10;36.40;;;;;;5057747;28;20464;-72
2022/11/16 01:28:43;;;;;;;12.93;9.77;;;10.20;36.20;;;;;;5056912;28;20529;-72
2022/11/16 01:31:10;;;;;;;14.90;10.63;;;10.10;36.40;;;;;;5060183;28;20461;-71
2022/11/16 01:33:38;;;;;;;13.83;10.17;;;10.10;36.40;;;;;;5061534;28;20529;-71
2022/11/16 01:36:13;;;;;;;16.07;10.67;;;10.20;36.50;;;;;;5061064;28;20465;-72
2022/11/16 01:38:41;;;;;;;14.27;10.00;;;10.20;36.50;;;;;;5060839;28;21161;-72
2022/11/16 01:41:08;;;;;;;16.80;11.00;;;10.10;36.50;;;;;;5065413;28;20534;-72
2022/11/16 01:43:54;;;;;;;13.43;10.83;;;10.10;36.90;;;;;;5066677;28;20468;-72
2022/11/16 01:46:21;;;;;;;14.37;10.90;;;10.10;37.10;;;;;;5065318;28;20463;-72
2022/11/16 01:48:52;;;;;;;19.30;10.83;;;10.10;36.90;;;;;;5066544;28;20795;-70
2022/11/16 01:51:20;;;;;;;13.27;10.03;;;10.10;36.90;;;;;;5064776;28;20472;-71
2022/11/16 01:53:47;;;;;;;12.37;9.80;;;10.00;37.00;;;;;;5064033;28;20464;-73
2022/11/16 01:56:14;;;;;;;13.03;11.00;;;10.00;37.00;;;;;;5064152;28;21010;-71
2022/11/16 01:58:42;;;;;;;17.17;10.87;;;10.00;37.00;;;;;;5062052;28;20461;-71
2022/11/16 02:01:09;;;;;;;18.40;11.33;;;10.10;37.20;;;;;;5064482;28;20476;-71
2022/11/16 02:03:38;;;;;;;16.67;11.57;;;10.00;37.80;;;;;;5066075;28;20488;-71
2022/11/16 02:06:21;;;;;;;19.07;12.60;;;10.10;37.30;;;;;;5067271;28;20829;-71
2022/11/16 02:12:00;;;;;;;31.87;16.23;;;10.10;37.30;;;;;;5063396;28;20455;-71
2022/11/16 02:14:41;;;;;;;20.47;12.53;;;10.10;37.40;;;;;;5065725;28;20487;-72
2022/11/16 02:17:19;;;;;;;13.67;10.40;;;10.10;37.50;;;;;;5064245;28;20555;-71
2022/11/16 02:20:03;;;;;;;15.90;9.97;;;10.00;37.40;;;;;;5060143;28;20486;-71
2022/11/16 02:22:48;;;;;;;13.67;10.50;;;10.00;37.60;;;;;;5067477;28;20472;-72
2022/11/16 02:25:21;;;;;;;14.83;10.40;;;10.00;37.60;;;;;;5061837;28;20459;-72
2022/11/16 02:28:05;;;;;;;15.97;10.70;;;10.00;37.50;;;;;;5060051;28;20468;-73
2022/11/16 02:30:35;;;;;;;17.60;11.60;;;10.00;37.70;;;;;;5062811;28;20483;-73
2022/11/16 02:33:09;;;;;;;27.00;14.77;;;10.00;37.60;;;;;;5062584;28;20456;-71
2022/11/16 02:35:42;;;;;;;31.53;18.03;;;10.00;38.20;;;;;;5067112;28;20449;-72
2022/11/16 02:38:13;;;;;;;31.20;16.40;;;10.00;37.60;;;;;;5058154;28;20457;-70
2022/11/16 02:40:44;;;;;;;21.47;14.63;;;9.90;37.80;;;;;;5062095;28;21848;-72
2022/11/16 02:43:15;;;;;;;21.30;11.77;;;10.00;37.80;;;;;;5062755;28;20511;-73
2022/11/16 02:45:49;;;;;;;15.83;12.00;;;10.00;38.10;;;;;;5063118;28;20548;-71
2022/11/16 02:48:21;;;;;;;15.47;12.40;;;10.00;38.20;;;;;;5058961;28;20457;-72
2022/11/16 02:50:51;;;;;;;16.23;11.77;;;10.10;38.20;;;;;;5062358;28;20469;-72
2022/11/16 02:53:20;;;;;;;15.57;12.43;;;10.10;38.20;;;;;;5068305;28;20446;-74
2022/11/16 02:55:47;;;;;;;17.40;12.60;;;10.10;38.10;;;;;;5062713;28;20464;-72
2022/11/16 02:58:16;;;;;;;16.60;12.87;;;10.10;38.10;;;;;;5069898;28;20453;-72
2022/11/16 03:00:48;;;;;;;18.03;12.17;;;10.10;38.20;;;;;;5066848;28;20727;-72
2022/11/16 03:03:21;;;;;;;17.00;11.53;;;10.10;38.30;;;;;;5062377;28;21026;-73
2022/11/16 03:05:52;;;;;;;14.80;11.83;;;10.10;38.40;;;;;;5064721;28;20457;-71
2022/11/16 03:08:23;;;;;;;17.67;11.33;;;10.10;38.20;;;;;;5063930;28;20453;-72
2022/11/16 03:13:40;;;;;;;14.30;10.40;;;10.10;38.30;;;;;;5055910;28;20586;-71
2022/11/16 03:16:14;;;;;;;17.10;11.53;;;10.00;38.30;;;;;;5065560;28;20468;-71
2022/11/16 03:18:43;;;;;;;15.87;12.13;;;10.00;38.60;;;;;;5063949;28;20462;-71
2022/11/16 03:21:17;;;;;;;19.00;12.30;;;10.00;38.50;;;;;;5065660;28;20468;-72
2022/11/16 03:23:46;;;;;;;17.87;13.00;;;10.00;38.70;;;;;;5055649;28;20460;-72
2022/11/16 03:26:18;;;;;;;13.93;11.70;;;10.00;38.60;;;;;;5061342;28;20462;-71
2022/11/16 03:28:52;;;;;;;16.37;12.80;;;10.00;38.70;;;;;;5064556;28;20960;-71
2022/11/16 03:31:26;;;;;;;17.10;12.00;;;10.00;38.80;;;;;;5052984;28;20477;-72
2022/11/16 03:33:55;;;;;;;16.73;13.27;;;10.00;38.70;;;;;;5060260;28;20453;-71
2022/11/16 03:36:28;;;;;;;21.97;14.87;;;10.00;38.60;;;;;;5059135;28;20473;-70
2022/11/16 03:38:58;;;;;;;20.10;15.70;;;10.00;38.50;;;;;;5067698;28;20522;-72
2022/11/16 03:41:28;;;;;;;24.30;18.17;;;10.00;38.50;;;;;;5059613;28;20542;-72
2022/11/16 03:43:56;;;;;;;20.93;17.30;;;10.00;38.70;;;;;;5064289;28;20449;-73
2022/11/16 03:46:24;;;;;;;29.93;16.77;;;10.00;38.60;;;;;;5063202;28;20552;-72
2022/11/16 03:48:57;;;;;;;22.67;16.30;;;10.00;38.70;;;;;;5057674;28;20514;-73
2022/11/16 03:51:24;;;;;;;23.07;17.33;;;10.00;38.90;;;;;;5057159;28;20454;-71
2022/11/16 03:53:51;;;;;;;23.67;18.00;;;10.00;38.90;;;;;;5053239;28;20462;-70
2022/11/16 03:56:18;;;;;;;22.00;17.10;;;10.00;38.90;;;;;;5065216;28;20468;-71
2022/11/16 03:58:45;;;;;;;21.13;16.00;;;10.00;39.00;;;;;;5054826;28;20476;-71
2022/11/16 04:01:12;;;;;;;21.57;15.40;;;10.00;39.10;;;;;;5060039;28;20484;-72
2022/11/16 04:03:40;;;;;;;23.77;17.70;;;10.00;39.30;;;;;;5065889;28;20481;-70
2022/11/16 04:25:37;;;;;;;20.97;16.37;;;10.10;39.70;;;;;;5060524;28;20837;-72
2022/11/16 04:28:12;;;;;;;19.80;15.77;;;10.10;39.90;;;;;;5063731;28;21019;-71
2022/11/16 04:38:54;;;;;;;22.67;15.77;;;10.00;40.40;;;;;;5060025;28;21307;-72
2022/11/16 04:44:06;;;;;;;21.27;16.37;;;9.90;41.10;;;;;;5062155;28;20828;-74
2022/11/16 04:49:16;;;;;;;21.23;14.67;;;9.80;41.10;;;;;;5052379;28;21054;-73
2022/11/16 04:51:45;;;;;;;18.07;15.17;;;9.90;41.40;;;;;;5063422;28;20465;-73
2022/11/16 04:54:11;;;;;;;19.70;14.73;;;9.90;41.50;;;;;;5057953;28;21000;-73
2022/11/16 04:56:38;;;;;;;19.27;13.93;;;9.90;41.50;;;;;;5059883;28;20453;-74
2022/11/16 04:59:05;;;;;;;23.40;15.67;;;9.90;41.40;;;;;;5056720;28;20863;-74
2022/11/16 05:04:16;;;;;;;20.13;12.73;;;10.00;41.50;;;;;;5057264;28;20888;-73
2022/11/16 05:06:44;;;;;;;17.63;13.67;;;10.00;41.70;;;;;;5055667;28;20472;-72
2022/11/16 05:09:11;;;;;;;21.67;13.30;;;10.10;41.70;;;;;;5053546;28;20552;-72
2022/11/16 05:11:38;;;;;;;17.73;12.83;;;10.10;41.30;;;;;;5060276;28;20992;-72
2022/11/16 05:14:05;;;;;;;19.67;12.77;;;10.10;41.50;;;;;;5059705;28;20453;-72
2022/11/16 05:16:32;;;;;;;17.60;12.97;;;10.10;41.70;;;;;;5061606;28;20471;-72
2022/11/16 05:21:43;;;;;;;15.53;11.93;;;10.20;41.70;;;;;;5064476;28;20464;-72
2022/11/16 05:26:56;;;;;;;19.43;12.10;;;10.30;41.80;;;;;;5054200;28;21165;-71
2022/11/16 05:29:23;;;;;;;17.70;13.03;;;10.30;41.90;;;;;;5062466;28;20484;-73
2022/11/16 05:31:50;;;;;;;16.70;12.70;;;10.20;41.80;;;;;;5060767;28;20696;-72
2022/11/16 05:34:16;;;;;;;19.90;13.50;;;10.30;41.80;;;;;;5058085;28;20461;-73
2022/11/16 05:36:43;;;;;;;16.23;12.30;;;10.30;41.90;;;;;;5065523;28;20453;-72
2022/11/16 05:39:12;;;;;;;17.00;12.17;;;10.30;41.90;;;;;;5063903;28;20484;-73
2022/11/16 05:41:39;;;;;;;15.10;10.80;;;10.30;42.20;;;;;;5061067;28;20452;-71
2022/11/16 05:44:06;;;;;;;16.10;11.70;;;10.30;42.30;;;;;;5055625;28;20488;-72
2022/11/16 05:46:32;;;;;;;15.70;11.60;;;10.30;42.40;;;;;;5061476;28;20461;-72
2022/11/16 05:48:59;;;;;;;17.83;11.30;;;10.30;42.30;;;;;;5064176;28;20484;-71
2022/11/16 05:51:26;;;;;;;15.37;10.93;;;10.20;42.20;;;;;;5058917;28;20473;-72
2022/11/16 05:53:53;;;;;;;16.30;11.70;;;10.30;42.30;;;;;;5059353;28;20449;-71
2022/11/16 05:56:21;;;;;;;16.17;11.57;;;10.30;42.30;;;;;;5053668;28;20457;-72
2022/11/16 05:58:48;;;;;;;17.80;12.17;;;10.30;42.20;;;;;;5052383;28;20468;-74
2022/11/16 06:01:14;;;;;;;15.23;12.23;;;10.40;42.00;;;;;;5058776;28;20483;-74
2022/11/16 06:03:41;;;;;;;19.17;11.80;;;10.40;41.80;;;;;;5065882;28;20513;-74
2022/11/16 06:06:08;;;;;;;16.63;12.30;;;10.40;41.90;;;;;;5065557;28;20449;-72
2022/11/16 06:08:35;;;;;;;15.03;11.33;;;10.40;41.80;;;;;;5064036;28;20456;-72
2022/11/16 06:11:03;;;;;;;16.97;12.40;;;10.40;42.00;;;;;;5058443;28;20519;-72
2022/11/16 06:13:31;;;;;;;15.37;11.77;;;10.50;41.80;;;;;;5058251;28;20460;-72
2022/11/16 06:15:58;;;;;;;15.73;10.83;;;10.50;41.70;;;;;;5055369;28;20466;-74
2022/11/16 06:18:25;;;;;;;16.47;10.80;;;10.50;41.80;;;;;;5061056;28;20532;-74
2022/11/16 06:20:52;;;;;;;17.70;11.27;;;10.50;41.70;;;;;;5059819;28;20489;-73
2022/11/16 06:23:19;;;;;;;15.40;11.50;;;10.50;41.70;;;;;;5061720;28;20511;-73
2022/11/16 06:25:46;;;;;;;14.50;10.80;;;10.60;41.80;;;;;;5068370;28;20463;-71
2022/11/16 06:28:13;;;;;;;15.77;11.67;;;10.60;41.70;;;;;;5061042;28;20462;-72
2022/11/16 06:30:41;;;;;;;15.50;11.63;;;10.60;41.70;;;;;;5062105;28;20476;-72
2022/11/16 06:33:08;;;;;;;14.37;10.47;;;10.60;41.80;;;;;;5068522;28;20453;-72
2022/11/16 06:35:35;;;;;;;14.37;11.37;;;10.60;41.80;;;;;;5066399;28;20457;-72
2022/11/16 06:38:01;;;;;;;17.10;11.20;;;10.60;41.70;;;;;;5061417;28;20818;-71
2022/11/16 06:40:28;;;;;;;15.23;11.23;;;10.70;41.90;;;;;;5065894;28;20481;-72
2022/11/16 06:42:56;;;;;;;17.67;11.93;;;10.70;41.80;;;;;;5067264;28;20477;-71
2022/11/16 06:45:22;;;;;;;14.80;11.23;;;10.70;41.70;;;;;;5067674;28;20461;-72
2022/11/16 06:47:51;;;;;;;20.77;11.50;;;10.70;42.50;;;;;;5062230;28;20472;-72
2022/11/16 06:50:18;;;;;;;14.57;11.07;;;10.70;41.80;;;;;;5053962;28;20500;-73
2022/11/16 06:52:45;;;;;;;15.70;11.30;;;10.70;41.80;;;;;;5063795;28;20465;-72
2022/11/16 06:55:12;;;;;;;18.87;12.97;;;10.80;41.70;;;;;;5064362;28;20465;-73
2022/11/16 06:57:39;;;;;;;15.27;10.83;;;10.80;41.70;;;;;;5067693;28;20956;-71
2022/11/16 07:00:08;;;;;;;15.13;10.47;;;10.80;41.80;;;;;;5065332;28;20507;-72
2022/11/16 07:02:36;;;;;;;14.30;10.67;;;10.80;41.50;;;;;;5065029;28;20847;-73
2022/11/16 07:05:05;;;;;;;15.57;11.00;;;10.80;41.60;;;;;;5065120;28;20457;-71
2022/11/16 07:07:32;;;;;;;15.90;11.57;;;10.80;41.60;;;;;;5064401;28;20461;-71
2022/11/16 07:09:58;;;;;;;17.33;12.43;;;10.80;41.60;;;;;;5065376;28;21017;-71
2022/11/16 07:12:26;;;;;;;14.47;10.83;;;10.80;41.60;;;;;;5069258;28;20518;-71
2022/11/16 07:14:52;;;;;;;15.80;11.30;;;10.90;41.60;;;;;;5065329;28;20461;-71
2022/11/16 07:17:19;;;;;;;15.83;10.53;;;10.90;41.50;;;;;;5061331;28;20980;-70
2022/11/16 07:19:46;;;;;;;13.90;10.47;;;10.90;41.40;;;;;;5063985;28;21127;-71
2022/11/16 07:22:14;;;;;;;14.33;10.27;;;10.90;41.40;;;;;;5062538;28;20530;-72
2022/11/16 07:24:41;;;;;;;14.43;10.33;;;11.00;41.30;;;;;;5068780;28;20457;-71
2022/11/16 07:27:08;;;;;;;13.53;9.63;;;11.00;41.40;;;;;;5065666;28;20459;-71
2022/11/16 07:29:35;;;;;;;14.53;10.37;;;10.90;41.30;;;;;;5063776;28;20851;-71
2022/11/16 07:32:01;;;;;;;12.90;9.23;;;11.00;41.30;;;;;;5068012;28;20476;-71
2022/11/16 07:34:28;;;;;;;14.30;9.97;;;10.90;41.40;;;;;;5066455;28;20461;-72
2022/11/16 07:36:55;;;;;;;14.90;10.07;;;10.90;41.40;;;;;;5066601;28;20461;-71
2022/11/16 07:39:23;;;;;;;14.70;10.37;;;11.00;41.30;;;;;;5058483;28;20489;-72
2022/11/16 07:41:52;;;;;;;13.03;8.80;;;11.00;41.40;;;;;;5058892;28;20999;-71
2022/11/16 07:44:19;;;;;;;13.67;10.27;;;11.00;41.20;;;;;;5055752;28;21265;-71
2022/11/16 07:46:46;;;;;;;11.40;8.30;;;11.00;41.10;;;;;;5063740;28;20468;-71
2022/11/16 07:49:14;;;;;;;12.50;9.00;;;11.10;41.30;;;;;;5063216;28;20476;-71
2022/11/16 07:51:41;;;;;;;13.40;10.00;;;11.10;41.00;;;;;;5062711;28;20492;-72
2022/11/16 07:54:10;;;;;;;13.87;9.77;;;11.10;41.00;;;;;;5054829;28;20469;-71
2022/11/16 07:56:38;;;;;;;18.40;9.90;;;11.20;40.60;;;;;;5059526;28;20465;-72
2022/11/16 07:59:05;;;;;;;13.80;9.90;;;11.20;40.50;;;;;;5058242;28;20535;-72
2022/11/16 08:01:32;;;;;;;12.63;8.87;;;11.30;40.40;;;;;;5057611;28;20499;-72
2022/11/16 08:04:01;;;;;;;13.60;9.70;;;11.30;40.20;;;;;;5056804;28;20543;-72
2022/11/16 08:06:29;;;;;;;15.50;10.03;;;11.40;40.20;;;;;;5059870;28;20465;-72
2022/11/16 08:08:57;;;;;;;15.80;10.50;;;11.40;40.10;;;;;;5063263;28;20477;-72
2022/11/16 08:11:24;;;;;;;12.50;9.27;;;11.40;40.00;;;;;;5063980;28;20461;-71
2022/11/16 08:13:52;;;;;;;13.37;9.40;;;11.50;39.90;;;;;;5062293;28;20468;-72
2022/11/16 08:16:21;;;;;;;13.07;8.83;;;11.50;39.80;;;;;;5066382;28;20465;-72
2022/11/16 08:18:48;;;;;;;15.20;10.70;;;11.60;39.50;;;;;;5060097;28;20457;-72
2022/11/16 08:21:17;;;;;;;11.07;7.93;;;11.60;39.50;;;;;;5067583;28;20457;-72
2022/11/16 08:23:44;;;;;;;13.40;10.03;;;11.60;39.40;;;;;;5063275;28;20561;-72
2022/11/16 08:26:14;;;;;;;13.20;10.10;;;11.70;39.50;;;;;;5061847;28;20468;-72
2022/11/16 08:28:42;;;;;;;13.97;9.37;;;11.80;39.10;;;;;;5058076;28;20457;-70
2022/11/16 08:31:12;;;;;;;15.33;11.03;;;11.90;38.90;;;;;;5062702;28;20466;-72
2022/11/16 08:33:39;;;;;;;12.20;9.40;;;12.00;38.50;;;;;;5061459;28;20629;-71
2022/11/16 08:36:07;;;;;;;12.77;8.10;;;12.00;38.30;;;;;;5066011;28;21657;-73
2022/11/16 08:38:34;;;;;;;13.37;8.83;;;12.10;38.30;;;;;;5062171;28;20464;-70
2022/11/16 08:41:01;;;;;;;14.07;8.87;;;12.10;38.00;;;;;;5065837;28;20468;-73
2022/11/16 08:43:29;;;;;;;12.73;8.70;;;12.10;37.90;;;;;;5065159;28;21066;-71
2022/11/16 08:45:58;;;;;;;12.10;8.40;;;12.20;37.80;;;;;;5068703;28;20534;-71
2022/11/16 08:48:26;;;;;;;12.93;8.20;;;12.30;37.60;;;;;;5062521;28;20951;-71
2022/11/16 08:50:53;;;;;;;12.33;8.00;;;12.30;37.40;;;;;;5059654;28;20481;-71
2022/11/16 08:53:20;;;;;;;11.13;8.30;;;12.40;37.20;;;;;;5069859;28;20466;-71
2022/11/16 08:55:46;;;;;;;12.17;8.80;;;12.50;37.20;;;;;;5062347;28;20501;-71
2022/11/16 08:58:13;;;;;;;12.50;8.07;;;12.70;36.40;;;;;;5057833;28;20950;-72
2022/11/16 09:00:40;;;;;;;10.17;7.27;;;12.90;36.30;;;;;;5061804;28;20500;-72
2022/11/16 09:03:07;;;;;;;10.43;7.67;;;13.40;35.80;;;;;;5059847;28;20485;-70
2022/11/16 09:05:35;;;;;;;10.50;7.13;;;13.90;34.90;;;;;;5058776;28;20458;-72
2022/11/16 09:08:01;;;;;;;9.77;6.80;;;15.10;33.10;;;;;;5063166;28;20465;-73
2022/11/16 09:10:28;;;;;;;9.00;6.30;;;16.70;29.50;;;;;;5058445;28;20516;-71
2022/11/16 09:12:55;;;;;;;9.63;5.67;;;17.70;25.50;;;;;;5062346;28;20464;-71
2022/11/16 09:15:27;;;;;;;8.13;5.13;;;18.40;22.60;;;;;;5060013;28;20465;-71
2022/11/16 09:17:54;;;;;;;7.57;5.40;;;19.00;20.20;;;;;;5056677;28;20460;-71
2022/11/16 09:20:21;;;;;;;7.07;4.57;;;19.40;19.40;;;;;;5059665;28;20485;-71
2022/11/16 09:22:49;;;;;;;8.13;4.67;;;19.40;18.70;;;;;;5057874;28;20453;-71
2022/11/16 09:25:17;;;;;;;6.70;4.40;;;19.00;18.80;;;;;;5058558;28;21104;-71
2022/11/16 09:27:44;;;;;;;10.30;5.20;;;18.80;18.30;;;;;;5059225;28;20458;-70
2022/11/16 09:30:12;;;;;;;11.23;4.60;;;18.70;18.00;;;;;;5056809;28;20465;-71
2022/11/16 09:32:38;;;;;;;6.70;4.70;;;18.50;18.60;;;;;;5056319;28;21000;-71
2022/11/16 09:35:06;;;;;;;6.87;4.23;;;18.30;18.80;;;;;;5066718;28;20450;-71
2022/11/16 09:37:33;;;;;;;8.10;4.53;;;18.40;18.80;;;;;;5060911;28;20973;-71
2022/11/16 09:40:01;;;;;;;7.17;4.60;;;18.60;18.90;;;;;;5063583;28;20828;-71
2022/11/16 09:42:47;;;;;;;7.90;4.47;;;18.50;18.80;;;;;;5063452;28;20457;-71
2022/11/16 09:45:18;;;;;;;6.63;4.13;;;18.30;18.90;;;;;;5067506;28;20477;-71
2022/11/16 09:47:48;;;;;;;7.27;4.27;;;18.30;19.20;;;;;;5057998;28;20552;-71
2022/11/16 09:50:24;;;;;;;6.00;3.60;;;18.50;19.20;;;;;;5067307;28;20522;-70
2022/11/16 09:52:54;;;;;;;6.43;3.53;;;18.60;18.30;;;;;;5065048;28;20459;-71
2022/11/16 09:55:28;;;;;;;6.10;3.97;;;18.70;18.20;;;;;;5065874;28;20457;-70
2022/11/16 09:57:58;;;;;;;7.13;3.40;;;19.10;18.20;;;;;;5055001;28;20471;-71
2022/11/16 10:00:25;;;;;;;6.63;3.80;;;19.60;17.20;;;;;;5060624;28;20507;-72
2022/11/16 10:03:01;;;;;;;9.40;4.10;;;19.80;16.20;;;;;;5067493;28;20459;-72
2022/11/16 10:05:32;;;;;;;6.20;3.53;;;19.80;16.00;;;;;;5070166;28;20444;-71
2022/11/16 10:08:04;;;;;;;10.47;3.80;;;19.60;15.80;;;;;;5065953;28;20458;-72
2022/11/16 10:10:38;;;;;;;8.13;3.20;;;19.50;15.80;;;;;;5069563;28;20840;-72
2022/11/16 10:13:18;;;;;;;6.40;3.70;;;19.30;15.40;;;;;;5063660;28;21172;-71
2022/11/16 10:15:55;;;;;;;5.67;3.20;;;19.10;15.50;;;;;;5060854;28;20452;-72
2022/11/16 10:18:37;;;;;;;5.93;3.70;;;18.80;16.10;;;;;;5067573;28;20469;-71
2022/11/16 10:21:25;;;;;;;7.53;3.60;;;18.50;16.50;;;;;;5057289;28;20480;-71
2022/11/16 10:24:27;;;;;;;5.40;2.97;;;18.30;16.90;;;;;;5064800;28;20523;-71
2022/11/16 10:27:07;;;;;;;6.10;3.20;;;18.20;16.80;;;;;;5055337;28;20592;-70
2022/11/16 10:29:49;;;;;;;5.33;2.97;;;18.20;17.00;;;;;;5060616;28;20473;-72
2022/11/16 10:32:24;;;;;;;5.70;3.23;;;18.10;17.20;;;;;;5065467;28;20478;-73
2022/11/16 10:34:53;;;;;;;5.67;3.27;;;18.00;17.70;;;;;;5066750;28;20452;-70
2022/11/16 10:37:21;;;;;;;8.33;3.20;;;18.40;16.90;;;;;;5066312;28;20846;-70
2022/11/16 10:39:51;;;;;;;5.50;2.50;;;18.70;16.30;;;;;;5064244;28;20484;-70
2022/11/16 10:42:28;;;;;;;7.53;3.60;;;19.80;15.60;;;;;;5069354;28;20822;-70
2022/11/16 10:44:59;;;;;;;7.10;2.83;;;20.70;13.40;;;;;;5069507;28;20477;-72
2022/11/16 10:47:34;;;;;;;5.10;2.40;;;21.20;12.20;;;;;;5060378;28;20449;-71
2022/11/16 10:50:04;;;;;;;5.13;2.20;;;22.30;11.00;;;;;;5054223;28;20533;-71
2022/11/16 10:52:31;;;;;;;6.33;2.43;;;23.00;8.30;;;;;;5077221;28;20459;-71
2022/11/16 10:54:57;;;;;;;5.87;2.07;;;23.30;7.60;;;;;;5065467;28;20477;-71
2022/11/16 10:57:45;;;;;;;5.30;1.80;;;23.60;6.80;;;;;;5068501;28;20456;-70
2022/11/16 11:00:37;;;;;;;4.37;1.67;;;23.10;6.70;;;;;;5067789;28;20473;-72
2022/11/16 11:03:04;;;;;;;5.30;1.53;;;22.50;7.30;;;;;;5057953;28;20462;-71
2022/11/16 11:05:32;;;;;;;4.93;2.13;;;21.90;7.50;;;;;;5063802;28;20854;-71
2022/11/16 11:08:03;;;;;;;5.27;2.33;;;21.30;8.80;;;;;;5059434;28;21142;-70
2022/11/16 11:10:32;;;;;;;4.67;2.10;;;21.40;10.00;;;;;;5068603;28;20481;-71
2022/11/16 11:13:22;;;;;;;4.27;1.60;;;23.10;8.50;;;;;;5066915;28;20465;-71
2022/11/16 11:15:50;;;;;;;5.17;1.90;;;25.00;5.80;;;;;;5061188;28;21032;-71
2022/11/16 11:18:26;;;;;;;5.63;1.73;;;26.00;3.90;;;;;;5065151;28;20522;-71
2022/11/16 11:21:16;;;;;;;4.20;1.60;;;26.10;2.50;;;;;;5056023;28;20524;-71
2022/11/16 11:23:46;;;;;;;8.03;1.80;;;25.90;2.40;;;;;;5059505;28;20473;-71
2022/11/16 11:26:29;;;;;;;4.90;1.60;;;25.40;2.40;;;;;;5062881;28;20462;-71
2022/11/16 11:28:57;;;;;;;5.30;2.00;;;24.40;3.30;;;;;;5059611;28;20584;-73
2022/11/16 11:31:32;;;;;;;6.07;1.70;;;23.50;4.60;;;;;;5058113;28;21024;-71
2022/11/16 11:34:04;;;;;;;5.17;2.00;;;22.70;6.20;;;;;;5065273;28;20453;-71
2022/11/16 11:36:37;;;;;;;4.67;2.20;;;22.30;6.70;;;;;;5062649;28;20460;-70
2022/11/16 11:39:07;;;;;;;6.90;2.40;;;22.10;7.60;;;;;;5057050;28;20534;-71
2022/11/16 11:41:39;;;;;;;6.00;2.43;;;21.90;8.20;;;;;;5066306;28;20467;-70
2022/11/16 11:44:14;;;;;;;5.93;2.30;;;21.70;8.80;;;;;;5062961;28;20817;-71
2022/11/16 11:46:48;;;;;;;6.27;2.57;;;21.30;9.10;;;;;;5062378;28;20468;-71
2022/11/16 11:49:20;;;;;;;6.43;2.20;;;21.00;9.30;;;;;;5051695;28;20481;-71
2022/11/16 11:51:49;;;;;;;7.53;2.87;;;20.60;9.80;;;;;;5060516;28;20484;-70
2022/11/16 11:54:23;;;;;;;7.63;2.40;;;20.30;11.50;;;;;;5059503;28;20457;-70
2022/11/16 11:56:49;;;;;;;5.30;1.67;;;19.90;11.70;;;;;;5066620;28;20457;-70
2022/11/16 11:59:21;;;;;;;6.23;1.87;;;19.60;12.40;;;;;;5063153;28;20488;-71
2022/11/16 12:02:01;;;;;;;7.00;1.90;;;19.30;12.20;;;;;;5067166;28;20466;-71
2022/11/16 12:04:57;;;;;;;5.60;1.73;;;19.00;13.20;;;;;;5063780;28;21075;-71
2022/11/16 12:07:45;;;;;;;4.80;1.30;;;18.70;13.20;;;;;;5054119;28;20462;-70
2022/11/16 12:10:21;;;;;;;5.00;1.80;;;18.40;13.90;;;;;;5063490;28;20481;-71
2022/11/16 12:13:00;;;;;;;5.00;2.43;;;18.20;14.50;;;;;;5065010;28;20461;-71
2022/11/16 12:15:36;;;;;;;5.60;1.23;;;18.00;14.90;;;;;;5065031;28;20457;-71
2022/11/16 12:18:18;;;;;;;4.27;1.30;;;17.80;15.00;;;;;;5066009;28;20457;-72
2022/11/16 12:20:53;;;;;;;4.37;1.07;;;17.80;15.10;;;;;;5064575;28;20482;-70
2022/11/16 12:23:36;;;;;;;5.63;1.47;;;17.80;14.90;;;;;;5044895;28;20982;-71
2022/11/16 12:26:11;;;;;;;4.07;1.30;;;17.80;15.00;;;;;;5061516;28;21100;-70
2022/11/16 12:28:51;;;;;;;5.90;1.60;;;17.80;15.20;;;;;;5058125;28;20947;-70
2022/11/16 12:31:35;;;;;;;4.37;1.43;;;17.80;14.90;;;;;;5062700;28;20473;-71
2022/11/16 12:34:12;;;;;;;4.10;1.20;;;17.80;14.80;;;;;;5058068;28;20457;-72
2022/11/16 12:36:51;;;;;;;5.53;1.30;;;17.90;15.00;;;;;;5061768;28;20453;-71
2022/11/16 12:39:23;;;;;;;3.80;1.10;;;18.00;14.10;;;;;;5058269;28;20481;-71
2022/11/16 12:42:17;;;;;;;6.10;1.30;;;18.00;14.30;;;;;;5052750;28;20526;-70
2022/11/16 12:45:15;;;;;;;4.80;0.90;;;18.00;14.20;;;;;;5063197;28;20489;-71
2022/11/16 12:48:03;;;;;;;4.20;0.90;;;17.80;14.60;;;;;;5061946;28;20465;-71
2022/11/16 12:50:46;;;;;;;4.47;1.40;;;17.60;14.80;;;;;;5063135;28;20472;-70
2022/11/16 12:53:30;;;;;;;5.37;1.43;;;17.50;14.90;;;;;;5064148;28;20457;-70
2022/11/16 12:56:06;;;;;;;4.30;1.00;;;17.30;14.90;;;;;;5059071;28;20835;-69
2022/11/16 12:58:48;;;;;;;3.63;0.90;;;17.20;14.70;;;;;;5061881;28;20460;-71
2022/11/16 13:01:20;;;;;;;4.60;0.93;;;17.00;15.00;;;;;;5056114;28;20484;-71
2022/11/16 13:03:52;;;;;;;5.23;1.30;;;16.80;15.20;;;;;;5065200;28;20453;-70
2022/11/16 13:06:26;;;;;;;6.40;1.30;;;16.70;15.80;;;;;;5063858;28;20457;-70
2022/11/16 13:09:01;;;;;;;4.03;1.13;;;16.50;16.40;;;;;;5060181;28;20488;-70
2022/11/16 13:11:33;;;;;;;7.70;1.30;;;16.30;16.70;;;;;;5062358;28;20453;-70
2022/11/16 13:14:04;;;;;;;5.00;1.27;;;16.20;16.70;;;;;;5065567;28;20457;-70
2022/11/16 13:16:31;;;;;;;5.80;1.60;;;16.00;17.40;;;;;;5064371;28;20837;-71
2022/11/16 13:19:00;;;;;;;6.53;2.33;;;15.90;17.40;;;;;;5057084;28;20489;-71
2022/11/16 13:21:38;;;;;;;5.83;1.30;;;15.80;17.80;;;;;;5062484;28;20476;-70
2022/11/16 13:24:22;;;;;;;5.30;2.50;;;15.70;18.00;;;;;;5059610;28;20457;-72
2022/11/16 13:26:56;;;;;;;5.53;1.17;;;15.60;18.30;;;;;;5061256;28;20458;-70
2022/11/16 13:29:32;;;;;;;3.90;1.43;;;15.50;18.30;;;;;;5060919;28;20618;-71
2022/11/16 13:32:07;;;;;;;4.93;1.43;;;15.50;18.50;;;;;;5069124;28;21013;-71
2022/11/16 13:34:37;;;;;;;4.43;1.23;;;15.60;18.60;;;;;;5066682;28;20452;-71
2022/11/16 13:37:42;;;;;;;5.47;1.33;;;15.60;18.50;;;;;;5062827;28;20464;-71
2022/11/16 13:40:28;;;;;;;6.00;2.00;;;15.50;18.60;;;;;;5057236;28;20568;-72
2022/11/16 13:43:02;;;;;;;3.87;1.03;;;15.40;18.40;;;;;;5062911;28;20461;-73
2022/11/16 13:45:33;;;;;;;7.53;1.77;;;15.40;18.40;;;;;;5067272;28;20538;-71